Aérodrome :
LOGIN :

S'inscrire | Disclaimer

   EN    FR    IT 

 










Légende :    VFR   VFR Marginal   IFR   IFR Intensif   IFR Très Intensif
Visi : 
Plafond : 
>= 8 km
>= 3000ft
5 à 8 km
1000 à 3000 ft
1500m à 5 km
500 à 1000 ft
800 à 1500m
200 à 500 ft
< 800m
< 200 ft
Symboles :   Orages  Brouillard  Fortes neiges  Fortes précipitations  Vent > 20 kt
SIGMETs :   Divers  Orages  Givrage  Turbulence  Onde Orograph.  Cendres Volcan.







- Altitude de l'aérodrome : 218 ft
- Code IATA : LBG
- Voir les cartes d'approche


LFPB - Paris / Le Bourget

DERNIER METAR :
  • 190800Z AUTO VRB02KT 2400 -RA BR FEW037 BKN052 OVC062 13/12 Q1007 BECMG 6000 NSW

METARs EXPIRÉS :
  • 190730Z AUTO VRB01KT 3200 -DZ BR SCT006 SCT013 BKN048 13/12 Q1007 BECMG 6000 NSW
  • 190700Z AUTO VRB02KT 3100 BR FEW005 BKN060 OVC070 13/12 Q1006 BECMG 8000 NSW
  • 190630Z AUTO 32005KT 280V340 3200 -RA BR ///TCU 13/12 Q1006 BECMG 8000 NSW NSC
  • 190600Z AUTO VRB02KT 3300 -RA BR ///TCU 13/11 Q1006 BECMG 8000 NSW NSC
  • 190530Z AUTO 32002KT 5000 -RA BR NSC 13/11 Q1006 NOSIG

TAF AMD TAF LFPB
Valide du 19 à 07h jusqu'au 20 à 06h UTC


190712Z 1907/2006 34008KT 4000 BR SCT005
BECMG 1907/1909 6000 NSW SCT020 BKN040
PROB40 1912/1921 4000 SHRA SCT020TCU BKN060
PROB30
TEMPO 1912/1918 2500 TSRA SCT015CB
PROB40
TEMPO 2002/2006 4000 -RA BKN020
ATIS : +33 1 48 62 43 92
Pas de NOTAMs connus pour ce terrain.



MET'MAP, la Météo Aéronautique d'un coup d'oeil ! - Copyright ORBIFLY Décembre 2007 - Disclaimer

ORBIFLY MET'MAP TEAM :

Programmation & Développement : Alexandra Zaïnal
Conception & Développement : Baudouin d'Aumeries
Co-Programmation & Développement : Marc-Olivier Méhu
Soutien technique & logistique : Manuel Goepfert

Contact : metmap@orbifly.com




SOURCES & CREDITS :

   NOAA